Terminal Aerodrome Forecast
Issued by NWS

Home | Current Version | Previous Version | Text Only | Print | Product List | Glossary On
Versions: 1 2 3 4 5 6 7 8 9 10 11 12
000
FTUS42 KTBW 020539
TAFLAL
TAF
KLAL 020539Z 0206/0306 12005KT P6SM SCT015 SCT050
     FM021400 14008KT P6SM SCT020 BKN050
     FM021800 20006KT P6SM VCTS SCT020CB BKN250
     FM030000 22006KT P6SM SCT030 BKN100
     FM030200 VRB05KT P6SM BKN045
      AMD NOT SKED TIL 021100=

USA.gov is the U.S. government's official web portal to all federal, state and local government web resources and services.